createdAt,value
2022-10-18T00:02:12.498Z,0.3
2022-10-18T00:05:12.309Z,0.5
2022-10-18T00:08:12.315Z,0.7
2022-10-18T00:11:12.342Z,0.5
2022-10-18T00:14:12.300Z,0.55
2022-10-18T00:17:12.348Z,0.6
2022-10-18T00:20:12.343Z,0.65
2022-10-18T00:23:12.326Z,0.55
2022-10-18T00:26:12.329Z,0.9
2022-10-18T00:29:12.356Z,0.85
2022-10-18T00:32:12.306Z,0.8
2022-10-18T00:35:12.335Z,0.4
2022-10-18T00:38:12.324Z,0.5
2022-10-18T00:41:12.345Z,0.45
2022-10-18T00:44:12.340Z,0.45
2022-10-18T00:47:12.330Z,0.5
2022-10-18T00:50:12.316Z,0.45
2022-10-18T00:53:12.337Z,0.4
2022-10-18T00:56:12.322Z,0.4
2022-10-18T00:59:12.360Z,0.15
2022-10-18T01:02:12.531Z,0.05
2022-10-18T01:05:12.416Z,0.4
2022-10-18T01:08:12.351Z,0.85
2022-10-18T01:11:12.360Z,0.7
2022-10-18T01:14:12.384Z,0.85
2022-10-18T01:17:12.413Z,0.55
2022-10-18T01:20:12.394Z,0.45
2022-10-18T01:23:12.340Z,0.75
2022-10-18T01:26:12.374Z,0.6
2022-10-18T01:29:12.379Z,0.6
2022-10-18T01:32:12.379Z,0.55
2022-10-18T01:35:12.374Z,0.6
2022-10-18T01:38:12.395Z,0.45
2022-10-18T01:41:16.604Z,0.7
2022-10-18T01:44:12.391Z,0.3
2022-10-18T01:47:12.422Z,0.3
2022-10-18T01:50:12.394Z,0.2
2022-10-18T01:53:12.420Z,0.25
2022-10-18T01:56:12.410Z,0.25
2022-10-18T01:59:12.417Z,0.1
2022-10-18T02:02:12.423Z,0.3
2022-10-18T02:05:12.391Z,0.3
2022-10-18T02:08:24.275Z,0.25
2022-10-18T02:11:12.396Z,0.25
2022-10-18T02:14:12.419Z,0.15
2022-10-18T02:17:12.466Z,0.2
2022-10-18T02:20:12.396Z,0.3
2022-10-18T02:23:12.467Z,0.5
2022-10-18T02:26:12.425Z,0.5
2022-10-18T02:29:12.449Z,0.45
2022-10-18T02:32:12.439Z,0.5
2022-10-18T02:35:12.425Z,0.3
2022-10-18T02:38:12.456Z,0.35
2022-10-18T02:41:12.421Z,0.15
2022-10-18T02:44:12.434Z,0.4
2022-10-18T02:47:12.469Z,0.35
2022-10-18T02:50:12.449Z,0.5
2022-10-18T02:53:12.510Z,0.35
2022-10-18T02:56:12.450Z,0.75
2022-10-18T02:59:12.481Z,0.5
2022-10-18T03:02:12.429Z,0.5
2022-10-18T03:05:12.461Z,0.55
2022-10-18T03:08:12.439Z,0.85
2022-10-18T03:11:12.505Z,1.25
2022-10-18T03:14:12.466Z,1.4
2022-10-18T03:17:12.461Z,0.75
2022-10-18T03:20:12.486Z,1.45
2022-10-18T03:23:12.489Z,1.5
2022-10-18T03:26:12.454Z,1.05
2022-10-18T03:29:12.571Z,1
2022-10-18T03:32:12.510Z,1.35
2022-10-18T03:35:12.487Z,1.4
2022-10-18T03:38:12.534Z,1.5
2022-10-18T03:41:12.499Z,1.1
2022-10-18T03:44:12.545Z,1.2
2022-10-18T03:47:12.505Z,1.65
2022-10-18T03:50:12.502Z,1.3
2022-10-18T03:53:12.462Z,1.05
2022-10-18T03:56:12.484Z,1.2
2022-10-18T03:59:12.494Z,1.15
2022-10-18T04:02:12.525Z,1.4
2022-10-18T04:05:12.530Z,1.2
2022-10-18T04:08:12.561Z,1.1
2022-10-18T04:11:12.537Z,0.9
2022-10-18T04:14:12.527Z,0.55
2022-10-18T04:17:12.574Z,1.15
2022-10-18T04:20:12.555Z,1.1
2022-10-18T04:23:12.521Z,1.5
2022-10-18T04:26:12.562Z,1.35
2022-10-18T04:29:12.733Z,1.4
2022-10-18T04:32:12.569Z,1.55
2022-10-18T04:35:12.590Z,1.2
2022-10-18T04:38:12.570Z,0.95
2022-10-18T04:41:12.562Z,0.6
2022-10-18T04:44:12.551Z,1.2
2022-10-18T04:47:12.572Z,0.4
2022-10-18T04:50:12.549Z,0.45
2022-10-18T04:53:12.550Z,0.65
2022-10-18T04:56:12.589Z,0.8
2022-10-18T04:59:12.547Z,0.85
2022-10-18T05:02:12.592Z,0.85
2022-10-18T05:05:15.075Z,0.75
2022-10-18T05:08:12.578Z,0.85
2022-10-18T05:11:12.662Z,0.8
2022-10-18T05:14:12.570Z,0.85
2022-10-18T05:17:12.575Z,0.7
2022-10-18T05:23:12.596Z,0.5
2022-10-18T05:26:12.606Z,0.55
2022-10-18T05:29:12.810Z,0.55
2022-10-18T05:32:12.605Z,0.7
2022-10-18T05:35:12.605Z,0.7
2022-10-18T05:38:12.647Z,0.85
2022-10-18T05:41:12.628Z,0.9
2022-10-18T05:44:12.624Z,1.25
2022-10-18T05:47:12.631Z,1.05
2022-10-18T05:50:12.601Z,1.05
2022-10-18T05:53:35.061Z,0.8
2022-10-18T05:56:12.737Z,0.45
2022-10-18T05:59:12.766Z,0.5
2022-10-18T06:02:12.765Z,0.35
2022-10-18T06:05:12.628Z,1.35
2022-10-18T06:08:12.707Z,0.8
2022-10-18T06:11:12.651Z,0.6
2022-10-18T06:14:12.641Z,1.25
2022-10-18T06:17:12.680Z,0.8
2022-10-18T06:20:12.642Z,0.7
2022-10-18T06:23:12.687Z,1.3
2022-10-18T06:26:12.625Z,0.85
2022-10-18T06:29:12.810Z,1.75
2022-10-18T06:32:12.712Z,1.55
2022-10-18T06:35:12.697Z,1.9
2022-10-18T06:38:12.638Z,1.75
2022-10-18T06:41:12.695Z,1.6
2022-10-18T06:44:12.736Z,1
2022-10-18T06:47:12.636Z,0.95
2022-10-18T06:50:12.748Z,1.15
2022-10-18T06:53:12.712Z,1.25
2022-10-18T06:56:12.672Z,1
2022-10-18T06:59:12.746Z,1.4
2022-10-18T07:02:12.641Z,1.5
2022-10-18T07:05:12.676Z,0.65
2022-10-18T07:08:12.700Z,0.45
2022-10-18T07:11:12.717Z,0.45
2022-10-18T07:14:17.145Z,0.75
2022-10-18T07:17:12.711Z,1.3
2022-10-18T07:20:12.734Z,1.2
2022-10-18T07:23:12.690Z,1.25
2022-10-18T07:26:12.692Z,1.3
2022-10-18T07:29:12.852Z,1.6
2022-10-18T07:32:15.247Z,1.55
2022-10-18T07:35:17.622Z,2.25
2022-10-18T07:38:12.716Z,1.6
2022-10-18T07:41:12.770Z,1.75
2022-10-18T07:44:12.721Z,1.35
2022-10-18T07:47:12.722Z,1.2
2022-10-18T07:50:12.815Z,1.75
2022-10-18T07:53:12.742Z,1.8
2022-10-18T07:56:12.856Z,1.8
2022-10-18T07:59:12.760Z,1.75
2022-10-18T08:02:12.780Z,1.65
2022-10-18T08:05:12.797Z,1.6
2022-10-18T08:08:12.796Z,2.5
2022-10-18T08:11:12.772Z,1.2
2022-10-18T08:14:12.814Z,1.55
2022-10-18T08:17:12.785Z,1.8
2022-10-18T08:20:30.244Z,2.35
2022-10-18T08:23:12.753Z,1.55
2022-10-18T08:26:12.749Z,1.8
2022-10-18T08:29:23.158Z,1.5
2022-10-18T08:32:12.935Z,1.95
2022-10-18T08:35:12.785Z,2.1
2022-10-18T08:38:18.199Z,1.35
2022-10-18T08:41:12.785Z,1.25
2022-10-18T08:44:12.844Z,3.2
2022-10-18T08:47:12.875Z,2.2
2022-10-18T08:50:12.806Z,2.25
2022-10-18T08:53:12.785Z,1.6
2022-10-18T08:56:12.932Z,2
2022-10-18T08:59:12.786Z,2.25
2022-10-18T09:02:12.835Z,2
2022-10-18T09:05:12.810Z,1.4
2022-10-18T09:08:12.916Z,1.5
2022-10-18T09:11:12.806Z,2.1
2022-10-18T09:14:12.813Z,1.25
2022-10-18T09:17:17.216Z,1.5
2022-10-18T09:20:12.850Z,1.6
2022-10-18T09:23:12.860Z,1.95
2022-10-18T09:26:12.887Z,1.75
2022-10-18T09:29:13.068Z,1.75
2022-10-18T09:32:12.832Z,2.1
2022-10-18T09:35:12.847Z,1.85
2022-10-18T09:38:12.999Z,1.7
2022-10-18T09:41:13.310Z,2
2022-10-18T09:44:12.855Z,1.4
2022-10-18T09:47:17.961Z,2.4
2022-10-18T09:50:12.887Z,2.4
2022-10-18T09:53:12.832Z,2.1
2022-10-18T09:56:12.899Z,1.85
2022-10-18T09:59:12.886Z,2.05
2022-10-18T10:02:12.975Z,1.55
2022-10-18T10:05:12.876Z,1.15
2022-10-18T10:08:12.817Z,1.15
2022-10-18T10:11:12.851Z,1.7
2022-10-18T10:14:13.020Z,1.75
2022-10-18T10:17:12.915Z,2.35
2022-10-18T10:20:12.951Z,3.25
2022-10-18T10:23:12.970Z,2.4
2022-10-18T10:26:12.887Z,1.85
2022-10-18T10:29:33.464Z,2.3
2022-10-18T10:32:12.913Z,2
2022-10-18T10:35:22.638Z,1.9
2022-10-18T10:38:12.905Z,2.4
2022-10-18T10:41:12.946Z,2.3
2022-10-18T10:44:12.905Z,2.55
2022-10-18T10:47:12.900Z,2.15
2022-10-18T10:50:13.000Z,1.6
2022-10-18T10:53:12.909Z,1.95
2022-10-18T10:56:16.836Z,1.2
2022-10-18T10:59:12.976Z,2.15
2022-10-18T11:02:12.929Z,1.4
2022-10-18T11:05:12.926Z,1.85
2022-10-18T11:08:12.909Z,1.8
2022-10-18T11:11:12.942Z,1.25
2022-10-18T11:14:25.567Z,1.3
2022-10-18T11:17:12.941Z,1.4
2022-10-18T11:20:13.064Z,1.1
2022-10-18T11:23:12.927Z,1
2022-10-18T11:26:12.962Z,1.5
2022-10-18T11:29:12.911Z,2.4
2022-10-18T11:32:12.996Z,2.1
2022-10-18T11:35:13.012Z,1.95
2022-10-18T11:38:13.012Z,1.6
2022-10-18T11:41:12.927Z,1.35
2022-10-18T11:44:12.932Z,1.6
2022-10-18T11:47:12.961Z,1.5
2022-10-18T11:50:13.052Z,1.8
2022-10-18T11:53:13.007Z,1.7
2022-10-18T11:56:12.971Z,1.9
2022-10-18T11:59:12.962Z,1.85
2022-10-18T12:02:13.111Z,1.65
2022-10-18T12:05:23.389Z,1.4
2022-10-18T12:08:13.004Z,1.4
2022-10-18T12:11:12.984Z,1.25
2022-10-18T12:14:13.001Z,1.5
2022-10-18T12:17:41.044Z,1.55
2022-10-18T12:20:12.957Z,1.4
2022-10-18T12:23:13.007Z,1.85
2022-10-18T12:26:13.016Z,1.75
2022-10-18T12:29:13.052Z,1.3
2022-10-18T12:32:13.316Z,1.4
2022-10-18T12:35:13.407Z,1.45
2022-10-18T12:38:13.375Z,1.3
2022-10-18T12:41:13.363Z,1
2022-10-18T12:44:13.316Z,1.85
2022-10-18T12:47:13.422Z,1.35
2022-10-18T12:50:13.661Z,1.2
2022-10-18T12:53:13.083Z,2.3
2022-10-18T12:56:13.487Z,1.85
2022-10-18T12:59:13.213Z,2.45
2022-10-18T13:02:13.186Z,2.2
2022-10-18T13:05:26.906Z,2.45
2022-10-18T13:08:13.548Z,1.55
2022-10-18T13:11:13.192Z,1.65
2022-10-18T13:14:13.610Z,2.8
2022-10-18T13:17:14.163Z,2.75
2022-10-18T13:20:25.831Z,1.95
2022-10-18T13:23:13.214Z,1.4
2022-10-18T13:26:13.158Z,3.15
2022-10-18T13:29:13.290Z,2.55
2022-10-18T13:32:13.202Z,2.9
2022-10-18T13:35:13.074Z,2.2
2022-10-18T13:38:13.097Z,2.3
2022-10-18T13:41:13.202Z,1.65
2022-10-18T13:44:13.117Z,1.85
2022-10-18T13:47:13.092Z,2.3
2022-10-18T13:50:13.096Z,1.85
2022-10-18T13:53:13.079Z,2.3
2022-10-18T13:56:13.083Z,2.75
2022-10-18T13:59:16.484Z,2.3
2022-10-18T14:02:13.146Z,1.35
2022-10-18T14:05:24.879Z,1.65
2022-10-18T14:08:13.076Z,2.15
2022-10-18T14:11:13.063Z,1.95
2022-10-18T14:14:13.035Z,2.15
2022-10-18T14:17:18.170Z,2.1
2022-10-18T14:20:13.207Z,1.85
2022-10-18T14:23:13.175Z,2
2022-10-18T14:26:13.080Z,1.35
2022-10-18T14:29:13.133Z,2.5
2022-10-18T14:32:13.156Z,1.55
2022-10-18T14:35:31.916Z,1.75
2022-10-18T14:38:13.143Z,1.2
2022-10-18T14:41:13.108Z,1.5
2022-10-18T14:44:13.109Z,1.15
2022-10-18T14:47:13.148Z,1.7
2022-10-18T14:50:13.139Z,1.75
2022-10-18T14:53:13.247Z,1.15
2022-10-18T14:56:13.122Z,1.55
2022-10-18T14:59:13.132Z,1.45
2022-10-18T15:02:13.117Z,1
2022-10-18T15:05:13.238Z,1.15
2022-10-18T15:08:13.134Z,1.35
2022-10-18T15:11:15.403Z,1.65
2022-10-18T15:14:13.186Z,1.7
2022-10-18T15:17:13.167Z,1.5
2022-10-18T15:20:13.147Z,0.85
2022-10-18T15:23:13.229Z,1.05
2022-10-18T15:26:13.203Z,1.05
2022-10-18T15:29:13.250Z,0.85
2022-10-18T15:32:13.122Z,1.1
2022-10-18T15:35:13.157Z,0.7
2022-10-18T15:38:13.196Z,0.6
2022-10-18T15:41:13.142Z,0.95
2022-10-18T15:44:15.114Z,1
2022-10-18T15:47:13.207Z,0.55
2022-10-18T15:50:13.222Z,0.7
2022-10-18T15:53:13.173Z,1.1
2022-10-18T15:56:13.161Z,0.75
2022-10-18T15:59:13.191Z,1.05
2022-10-18T16:02:13.214Z,1
2022-10-18T16:05:13.211Z,1.05
2022-10-18T16:08:13.242Z,1.1
2022-10-18T16:11:13.255Z,0.65
2022-10-18T16:14:13.602Z,0.85
2022-10-18T16:17:13.184Z,0.7
2022-10-18T16:20:13.274Z,0.35
2022-10-18T16:23:13.174Z,0.75
2022-10-18T16:26:13.197Z,0.65
2022-10-18T16:29:13.227Z,0.8
2022-10-18T16:32:13.274Z,1
2022-10-18T16:35:13.214Z,0.6
2022-10-18T16:38:13.195Z,0.5
2022-10-18T16:41:13.170Z,0.9
2022-10-18T16:44:13.187Z,0.75
2022-10-18T16:47:13.216Z,0.8
2022-10-18T16:50:13.193Z,0.5
2022-10-18T16:53:13.302Z,0.65
2022-10-18T16:56:13.182Z,0.75
2022-10-18T16:59:13.384Z,0.75
2022-10-18T17:02:13.227Z,0.65
2022-10-18T17:05:13.218Z,0.7
2022-10-18T17:08:18.159Z,0.5
2022-10-18T17:11:13.235Z,0.5
2022-10-18T17:14:13.297Z,0.5
2022-10-18T17:17:13.251Z,0.7
2022-10-18T17:20:13.259Z,0.45
2022-10-18T17:23:13.279Z,0.7
2022-10-18T17:26:28.170Z,0.8
2022-10-18T17:29:13.366Z,0.75
2022-10-18T17:32:13.391Z,0.5
2022-10-18T17:35:13.274Z,0.6
2022-10-18T17:38:13.319Z,0.65
2022-10-18T17:41:13.329Z,0.8
2022-10-18T17:44:13.352Z,0.95
2022-10-18T17:47:13.383Z,0.65
2022-10-18T17:50:13.326Z,0.7
2022-10-18T17:53:13.389Z,0.45
2022-10-18T17:56:13.313Z,0.5
2022-10-18T17:59:13.307Z,0.3
2022-10-18T18:02:13.314Z,0.3
2022-10-18T18:05:13.239Z,0.35
2022-10-18T18:08:13.324Z,0.5
2022-10-18T18:11:13.234Z,0.75
2022-10-18T18:14:13.347Z,0.65
2022-10-18T18:17:13.327Z,0.6
2022-10-18T18:20:13.308Z,0.75
2022-10-18T18:23:13.289Z,0.95
2022-10-18T18:26:13.403Z,0.7
2022-10-18T18:29:13.295Z,0.45
2022-10-18T18:32:13.287Z,0.4
2022-10-18T18:35:13.310Z,0.55
2022-10-18T18:38:13.324Z,0.3
2022-10-18T18:41:13.363Z,0.35
2022-10-18T18:44:13.323Z,0.6
2022-10-18T18:47:14.430Z,0.3
2022-10-18T18:50:13.383Z,0.25
2022-10-18T18:53:13.314Z,0.35
2022-10-18T18:56:13.476Z,0.3
2022-10-18T18:59:13.318Z,0.2
2022-10-18T19:02:13.383Z,0.35
2022-10-18T19:05:13.515Z,0.3
2022-10-18T19:08:13.315Z,0.3
2022-10-18T19:11:13.333Z,0.2
2022-10-18T19:14:13.437Z,0.2
2022-10-18T19:17:13.384Z,0.15
2022-10-18T19:20:13.338Z,0.15
2022-10-18T19:23:13.363Z,0.1
2022-10-18T19:26:13.338Z,0.2
2022-10-18T19:29:13.403Z,0.3
2022-10-18T19:32:13.378Z,0
2022-10-18T19:35:13.405Z,0.15
2022-10-18T19:38:13.334Z,0.15
2022-10-18T19:41:13.422Z,0.1
2022-10-18T19:44:13.413Z,0
2022-10-18T19:47:13.376Z,0
2022-10-18T19:50:13.488Z,0
2022-10-18T19:53:13.354Z,0
2022-10-18T19:56:13.319Z,0
2022-10-18T19:59:13.361Z,0
2022-10-18T20:02:13.430Z,0
2022-10-18T20:05:13.441Z,0
2022-10-18T20:08:13.457Z,0
2022-10-18T20:11:13.394Z,0
2022-10-18T20:14:13.414Z,0
2022-10-18T20:17:13.401Z,0
2022-10-18T20:20:13.420Z,0
2022-10-18T20:23:13.389Z,0
2022-10-18T20:26:19.581Z,0
2022-10-18T20:29:13.545Z,0
2022-10-18T20:32:13.476Z,0
2022-10-18T20:35:13.441Z,0.3
2022-10-18T20:38:13.477Z,0.15
2022-10-18T20:41:13.494Z,0.1
2022-10-18T20:44:13.458Z,0.1
2022-10-18T20:47:13.488Z,0.15
2022-10-18T20:50:13.649Z,0
2022-10-18T20:53:13.509Z,0
2022-10-18T20:56:13.518Z,0
2022-10-18T20:59:13.512Z,0
2022-10-18T21:02:13.569Z,0
2022-10-18T21:05:13.529Z,0.15
2022-10-18T21:08:13.554Z,0.1
2022-10-18T21:11:13.581Z,0.2
2022-10-18T21:14:13.544Z,0.05
2022-10-18T21:17:13.492Z,0.15
2022-10-18T21:20:13.519Z,0.35
2022-10-18T21:23:13.541Z,0.2
2022-10-18T21:26:13.524Z,0.2
2022-10-18T21:29:15.197Z,0.05
2022-10-18T21:32:13.547Z,0.15
2022-10-18T21:35:13.557Z,0.2
2022-10-18T21:38:13.557Z,0
2022-10-18T21:41:13.539Z,0
2022-10-18T21:44:13.599Z,0
2022-10-18T21:47:13.580Z,0.1
2022-10-18T21:50:13.563Z,0
2022-10-18T21:53:13.545Z,0
2022-10-18T21:56:13.577Z,0
2022-10-18T21:59:13.598Z,0
2022-10-18T22:02:13.504Z,0.2
2022-10-18T22:05:13.661Z,0.15
2022-10-18T22:08:13.708Z,0
2022-10-18T22:11:13.617Z,0
2022-10-18T22:14:13.683Z,0
2022-10-18T22:17:13.588Z,0
2022-10-18T22:20:13.595Z,0
2022-10-18T22:23:13.550Z,0.2
2022-10-18T22:26:13.795Z,0.25
2022-10-18T22:29:13.707Z,0.3
2022-10-18T22:32:13.698Z,0.45
2022-10-18T22:35:13.724Z,0.45
2022-10-18T22:38:13.624Z,0.45
2022-10-18T22:41:13.643Z,0.2
2022-10-18T22:44:13.605Z,0.25
2022-10-18T22:47:13.716Z,0.15
2022-10-18T22:50:13.673Z,0.25
2022-10-18T22:53:13.758Z,0.15
2022-10-18T22:56:13.664Z,0.3
2022-10-18T22:59:13.639Z,0.25
2022-10-18T23:02:13.765Z,0.3
2022-10-18T23:05:13.682Z,0.25
2022-10-18T23:08:13.713Z,0.25
2022-10-18T23:11:13.708Z,0
2022-10-18T23:14:13.768Z,0
2022-10-18T23:17:13.699Z,0.2
2022-10-18T23:20:13.742Z,0.1
2022-10-18T23:23:13.780Z,0
2022-10-18T23:26:13.748Z,0.25
2022-10-18T23:29:13.882Z,0.25
2022-10-18T23:32:13.733Z,0.25
2022-10-18T23:35:13.723Z,0.2
2022-10-18T23:38:13.665Z,0.2
2022-10-18T23:41:13.791Z,0.35
2022-10-18T23:44:13.691Z,0.45
2022-10-18T23:47:13.793Z,0.35
2022-10-18T23:50:13.729Z,0.35
2022-10-18T23:53:13.791Z,0.35
2022-10-18T23:56:13.745Z,0.3
2022-10-18T23:59:13.771Z,0.2
